createdAt,value
2017-12-17T00:01:41.781Z,0.80
2017-12-17T00:04:09.909Z,0.80
2017-12-17T00:06:37.983Z,0.90
2017-12-17T00:09:06.117Z,0.90
2017-12-17T00:11:34.215Z,0.80
2017-12-17T00:14:02.340Z,0.70
2017-12-17T00:16:30.458Z,0.70
2017-12-17T00:18:58.572Z,0.70
2017-12-17T00:21:26.646Z,0.70
2017-12-17T00:23:54.727Z,0.70
2017-12-17T00:26:22.806Z,0.80
2017-12-17T00:28:50.885Z,0.80
2017-12-17T00:31:19.734Z,0.80
2017-12-17T00:33:47.840Z,0.80
2017-12-17T00:36:16.725Z,0.80
2017-12-17T00:38:44.803Z,0.80
2017-12-17T00:41:13.641Z,0.90
2017-12-17T00:43:41.736Z,0.80
2017-12-17T00:46:09.825Z,0.80
2017-12-17T00:48:38.720Z,0.80
2017-12-17T00:51:06.804Z,0.90
2017-12-17T00:53:35.653Z,0.80
2017-12-17T00:56:03.738Z,0.90
2017-12-17T00:58:31.819Z,0.80
2017-12-17T01:01:00.695Z,0.80
2017-12-17T01:03:28.751Z,0.80
2017-12-17T01:05:56.843Z,0.80
2017-12-17T01:08:25.690Z,0.90
2017-12-17T01:10:53.774Z,0.90
2017-12-17T01:13:21.865Z,0.90
2017-12-17T01:15:49.943Z,0.90
2017-12-17T01:18:18.796Z,0.90
2017-12-17T01:20:46.884Z,0.90
2017-12-17T01:23:14.958Z,0.90
2017-12-17T01:25:43.043Z,0.90
2017-12-17T01:28:11.882Z,0.90
2017-12-17T01:30:39.974Z,0.90
2017-12-17T01:33:08.051Z,0.90
2017-12-17T01:35:36.132Z,1.00
2017-12-17T01:38:04.215Z,0.90
2017-12-17T01:40:33.115Z,1.00
2017-12-17T01:43:01.960Z,1.00
2017-12-17T01:45:30.051Z,1.00
2017-12-17T01:47:58.134Z,1.00
2017-12-17T01:50:26.977Z,1.10
2017-12-17T01:52:55.064Z,1.10
2017-12-17T01:55:23.161Z,1.10
2017-12-17T01:57:52.002Z,1.10
2017-12-17T02:00:20.113Z,1.10
2017-12-17T02:02:48.965Z,1.00
2017-12-17T02:05:17.054Z,1.00
2017-12-17T02:07:45.139Z,1.00
2017-12-17T02:10:14.004Z,1.00
2017-12-17T02:12:42.295Z,1.00
2017-12-17T02:15:10.375Z,1.00
2017-12-17T02:17:54.255Z,1.10
2017-12-17T02:20:22.351Z,1.00
2017-12-17T02:22:50.432Z,1.00
2017-12-17T02:25:18.527Z,0.90
2017-12-17T02:27:47.385Z,0.90
2017-12-17T02:30:15.458Z,0.90
2017-12-17T02:32:43.555Z,0.90
2017-12-17T02:35:12.432Z,1.00
2017-12-17T02:37:40.504Z,1.00
2017-12-17T02:40:08.591Z,1.00
2017-12-17T02:42:37.460Z,1.00
2017-12-17T02:45:05.543Z,0.90
2017-12-17T02:47:34.404Z,1.00
2017-12-17T02:50:02.488Z,1.00
2017-12-17T02:52:30.568Z,0.90
2017-12-17T02:54:58.641Z,0.90
2017-12-17T02:57:26.720Z,0.90
2017-12-17T02:59:55.572Z,0.90
2017-12-17T03:02:23.663Z,0.90
2017-12-17T03:04:51.764Z,0.90
2017-12-17T03:07:19.860Z,0.90
2017-12-17T03:09:47.944Z,0.90
2017-12-17T03:12:16.035Z,0.90
2017-12-17T03:14:44.109Z,0.90
2017-12-17T03:17:12.196Z,0.90
2017-12-17T03:19:41.218Z,0.90
2017-12-17T03:22:09.303Z,0.90
2017-12-17T03:24:37.383Z,0.90
2017-12-17T03:27:05.458Z,0.90
2017-12-17T03:29:33.534Z,0.90
2017-12-17T03:32:01.631Z,0.90
2017-12-17T03:34:29.690Z,0.90
2017-12-17T03:36:57.772Z,0.90
2017-12-17T03:39:25.891Z,0.90
2017-12-17T03:41:53.981Z,0.90
2017-12-17T03:44:22.102Z,0.90
2017-12-17T03:46:50.944Z,0.90
2017-12-17T03:49:19.026Z,0.80
2017-12-17T03:51:47.123Z,0.90
2017-12-17T03:54:15.970Z,0.80
2017-12-17T03:56:44.059Z,0.80
2017-12-17T03:59:12.149Z,0.80
2017-12-17T04:01:40.224Z,0.80
2017-12-17T04:04:09.095Z,0.80
2017-12-17T04:06:37.187Z,0.80
2017-12-17T04:09:05.256Z,0.80
2017-12-17T04:11:34.186Z,0.80
2017-12-17T04:14:02.267Z,0.80
2017-12-17T04:16:30.351Z,0.80
2017-12-17T04:18:58.434Z,0.80
2017-12-17T04:21:26.567Z,0.80
2017-12-17T04:23:55.378Z,0.80
2017-12-17T04:26:23.459Z,0.80
2017-12-17T04:28:51.539Z,0.80
2017-12-17T04:31:19.673Z,0.80
2017-12-17T04:33:47.780Z,0.80
2017-12-17T04:36:15.863Z,0.80
2017-12-17T04:38:44.718Z,0.80
2017-12-17T04:41:12.816Z,0.80
2017-12-17T04:43:40.895Z,0.80
2017-12-17T04:46:09.778Z,0.70
2017-12-17T04:48:37.843Z,0.70
2017-12-17T04:51:05.953Z,0.70
2017-12-17T04:53:34.389Z,0.70
2017-12-17T04:56:02.476Z,0.70
2017-12-17T04:58:31.327Z,0.70
2017-12-17T05:00:59.655Z,0.60
2017-12-17T05:03:28.516Z,0.60
2017-12-17T05:05:56.608Z,0.60
2017-12-17T05:08:25.452Z,0.60
2017-12-17T05:10:53.581Z,0.60
2017-12-17T05:13:21.620Z,0.60
2017-12-17T05:15:50.483Z,0.60
2017-12-17T05:18:18.561Z,0.60
2017-12-17T05:20:46.659Z,0.60
2017-12-17T05:23:15.526Z,0.60
2017-12-17T05:25:43.610Z,0.60
2017-12-17T05:28:11.692Z,0.60
2017-12-17T05:30:40.600Z,0.60
2017-12-17T05:33:08.696Z,0.50
2017-12-17T05:35:36.772Z,0.60
2017-12-17T05:38:04.872Z,0.60
2017-12-17T05:40:32.952Z,0.60
2017-12-17T05:43:01.808Z,0.60
2017-12-17T05:45:29.896Z,0.50
2017-12-17T05:47:57.987Z,0.50
2017-12-17T05:50:26.835Z,0.60
2017-12-17T05:52:54.935Z,0.50
2017-12-17T05:55:23.785Z,0.50
2017-12-17T05:57:51.886Z,0.50
2017-12-17T06:00:19.976Z,0.50
2017-12-17T06:02:48.837Z,0.50
2017-12-17T06:05:16.921Z,0.50
2017-12-17T06:07:45.013Z,0.60
2017-12-17T06:10:13.865Z,0.50
2017-12-17T06:12:41.958Z,0.50
2017-12-17T06:15:11.159Z,0.50
2017-12-17T06:17:40.020Z,0.50
2017-12-17T06:20:08.120Z,0.50
2017-12-17T06:22:36.972Z,0.50
2017-12-17T06:25:05.070Z,0.50
2017-12-17T06:27:33.924Z,0.50
2017-12-17T06:30:02.017Z,0.50
2017-12-17T06:32:30.102Z,0.50
2017-12-17T06:34:58.951Z,0.50
2017-12-17T06:37:28.045Z,0.60
2017-12-17T06:39:56.131Z,0.50
2017-12-17T06:42:24.216Z,0.60
2017-12-17T06:44:52.332Z,0.60
2017-12-17T06:47:20.430Z,0.60
2017-12-17T06:49:48.516Z,0.60
2017-12-17T06:52:16.607Z,0.60
2017-12-17T06:54:45.452Z,0.60
2017-12-17T06:57:13.547Z,0.60
2017-12-17T06:59:41.677Z,0.60
2017-12-17T07:02:10.132Z,0.60
2017-12-17T07:04:38.263Z,0.60
2017-12-17T07:07:06.350Z,0.60
2017-12-17T07:09:35.224Z,0.50
2017-12-17T07:12:03.317Z,0.50
2017-12-17T07:14:32.161Z,0.60
2017-12-17T07:17:00.251Z,0.50
2017-12-17T07:19:28.343Z,0.50
2017-12-17T07:21:57.197Z,0.50
2017-12-17T07:24:25.279Z,0.50
2017-12-17T07:26:53.376Z,0.50
2017-12-17T07:29:22.230Z,0.50
2017-12-17T07:31:50.324Z,0.50
2017-12-17T07:34:18.405Z,0.60
2017-12-17T07:36:47.275Z,0.50
2017-12-17T07:39:15.345Z,0.50
2017-12-17T07:41:43.431Z,0.50
2017-12-17T07:44:12.279Z,0.60
2017-12-17T07:46:40.360Z,0.60
2017-12-17T07:49:08.455Z,0.60
2017-12-17T07:51:36.559Z,0.60
2017-12-17T07:54:04.638Z,0.60
2017-12-17T07:56:32.732Z,0.60
2017-12-17T07:59:00.819Z,0.60
2017-12-17T08:01:28.912Z,0.70
2017-12-17T08:03:57.774Z,0.60
2017-12-17T08:06:25.871Z,0.60
2017-12-17T08:08:53.954Z,0.70
2017-12-17T08:11:22.927Z,0.60
2017-12-17T08:13:51.028Z,0.60
2017-12-17T08:16:19.107Z,0.60
2017-12-17T08:18:47.195Z,0.60
2017-12-17T08:21:15.404Z,0.60
2017-12-17T08:23:43.587Z,0.50
2017-12-17T08:26:12.433Z,0.60
2017-12-17T08:28:40.531Z,0.60
2017-12-17T08:31:08.616Z,0.60
2017-12-17T08:33:37.471Z,0.60
2017-12-17T08:36:05.556Z,0.60
2017-12-17T08:38:33.649Z,0.60
2017-12-17T08:41:02.497Z,0.70
2017-12-17T08:43:30.579Z,0.70
2017-12-17T08:45:58.763Z,0.80
2017-12-17T08:48:26.849Z,0.70
2017-12-17T08:50:55.699Z,0.90
2017-12-17T08:53:23.796Z,0.90
2017-12-17T08:55:52.644Z,0.80
2017-12-17T08:58:20.741Z,0.80
2017-12-17T09:00:49.375Z,0.80
2017-12-17T09:03:17.836Z,0.80
2017-12-17T09:05:46.672Z,0.90
2017-12-17T09:08:14.863Z,0.90
2017-12-17T09:10:42.960Z,1.00
2017-12-17T09:13:11.836Z,1.00
2017-12-17T09:15:39.924Z,0.90
2017-12-17T09:18:08.792Z,1.00
2017-12-17T09:20:36.885Z,0.90
2017-12-17T09:23:04.972Z,0.90
2017-12-17T09:25:33.046Z,0.90
2017-12-17T09:28:01.137Z,0.90
2017-12-17T09:30:29.266Z,0.90
2017-12-17T09:32:57.347Z,0.90
2017-12-17T09:35:25.443Z,1.00
2017-12-17T09:37:53.519Z,1.00
2017-12-17T09:40:21.611Z,1.00
2017-12-17T09:42:49.696Z,1.00
2017-12-17T09:45:18.550Z,1.00
2017-12-17T09:47:46.650Z,1.00
2017-12-17T09:50:14.746Z,1.00
2017-12-17T09:52:42.842Z,1.10
2017-12-17T09:55:10.932Z,1.10
2017-12-17T09:57:39.019Z,1.00
2017-12-17T10:00:07.133Z,1.10
2017-12-17T10:02:35.225Z,1.10
2017-12-17T10:05:03.316Z,1.10
2017-12-17T10:07:31.414Z,1.00
2017-12-17T10:09:59.501Z,1.20
2017-12-17T10:12:28.360Z,1.00
2017-12-17T10:14:56.456Z,1.00
2017-12-17T10:17:25.304Z,1.10
2017-12-17T10:19:53.392Z,1.10
2017-12-17T10:22:21.488Z,1.10
2017-12-17T10:24:50.345Z,1.10
2017-12-17T10:27:18.435Z,1.00
2017-12-17T10:29:46.520Z,1.00
2017-12-17T10:32:15.368Z,0.90
2017-12-17T10:34:43.459Z,0.90
2017-12-17T10:37:11.527Z,1.00
2017-12-17T10:39:39.616Z,1.00
2017-12-17T10:42:08.477Z,1.00
2017-12-17T10:44:36.564Z,1.00
2017-12-17T10:47:05.420Z,1.10
2017-12-17T10:49:33.503Z,1.00
2017-12-17T10:52:01.592Z,1.10
2017-12-17T10:54:29.668Z,1.00
2017-12-17T10:56:58.535Z,1.20
2017-12-17T10:59:26.661Z,1.10
2017-12-17T11:01:54.751Z,1.20
2017-12-17T11:04:22.855Z,1.20
2017-12-17T11:06:50.951Z,1.20
2017-12-17T11:09:19.808Z,1.20
2017-12-17T11:11:47.924Z,1.20
2017-12-17T11:14:16.027Z,1.30
2017-12-17T11:16:44.128Z,1.30
2017-12-17T11:19:12.211Z,1.30
2017-12-17T11:21:41.071Z,1.20
2017-12-17T11:24:09.148Z,1.20
2017-12-17T11:26:37.225Z,1.20
2017-12-17T11:29:05.694Z,1.10
2017-12-17T11:31:33.764Z,1.20
2017-12-17T11:34:02.238Z,1.20
2017-12-17T11:36:30.352Z,1.10
2017-12-17T11:38:59.203Z,1.20
2017-12-17T11:41:27.334Z,1.20
2017-12-17T11:43:55.417Z,1.20
2017-12-17T11:46:23.498Z,1.20
2017-12-17T11:48:51.574Z,1.20
2017-12-17T11:51:19.717Z,1.20
2017-12-17T11:53:47.845Z,1.20
2017-12-17T11:56:15.978Z,1.20
2017-12-17T11:58:44.781Z,1.20
2017-12-17T12:01:12.858Z,1.20
2017-12-17T12:03:41.125Z,1.20
2017-12-17T12:06:09.239Z,1.20
2017-12-17T12:08:38.077Z,1.30
2017-12-17T12:11:06.168Z,1.20
2017-12-17T12:13:34.290Z,1.20
2017-12-17T12:16:02.443Z,1.30
2017-12-17T12:18:31.289Z,1.20
2017-12-17T12:20:59.413Z,1.20
2017-12-17T12:23:27.538Z,1.20
2017-12-17T12:25:55.611Z,1.20
2017-12-17T12:28:25.211Z,1.20
2017-12-17T12:30:53.381Z,1.20
2017-12-17T12:33:21.467Z,1.20
2017-12-17T12:35:50.354Z,1.10
2017-12-17T12:38:18.448Z,1.10
2017-12-17T12:40:46.572Z,1.20
2017-12-17T12:43:14.696Z,1.30
2017-12-17T12:45:43.567Z,1.30
2017-12-17T12:48:12.451Z,1.30
2017-12-17T12:50:40.515Z,1.30
2017-12-17T12:53:09.376Z,1.30
2017-12-17T12:55:37.538Z,1.30
2017-12-17T12:58:05.670Z,1.30
2017-12-17T13:00:34.494Z,1.30
2017-12-17T13:03:02.607Z,1.30
2017-12-17T13:05:31.511Z,1.20
2017-12-17T13:08:00.391Z,1.20
2017-12-17T13:10:29.239Z,1.20
2017-12-17T13:12:57.332Z,1.20
2017-12-17T13:15:25.432Z,1.20
2017-12-17T13:17:53.573Z,1.30
2017-12-17T13:20:21.707Z,1.30
2017-12-17T13:22:49.792Z,1.30
2017-12-17T13:25:17.888Z,1.20
2017-12-17T13:27:46.758Z,1.20
2017-12-17T13:30:14.836Z,1.20
2017-12-17T13:32:42.957Z,1.20
2017-12-17T13:35:11.095Z,1.30
2017-12-17T13:37:39.185Z,1.30
2017-12-17T13:40:08.032Z,1.30
2017-12-17T13:42:36.174Z,1.30
2017-12-17T13:45:05.087Z,1.30
2017-12-17T13:47:33.234Z,1.30
2017-12-17T13:50:01.308Z,1.30
2017-12-17T13:52:29.441Z,1.20
2017-12-17T13:54:58.364Z,1.20
2017-12-17T13:57:26.494Z,1.20
2017-12-17T13:59:54.556Z,1.20
2017-12-17T14:02:23.455Z,1.20
2017-12-17T14:04:52.337Z,1.20
2017-12-17T14:07:21.232Z,1.20
2017-12-17T14:09:49.361Z,1.20
2017-12-17T14:12:17.478Z,1.20
2017-12-17T14:14:46.332Z,1.20
2017-12-17T14:17:14.465Z,1.20
2017-12-17T14:19:42.676Z,1.20
2017-12-17T14:22:10.795Z,1.20
2017-12-17T14:24:38.889Z,1.20
2017-12-17T14:27:06.970Z,1.10
2017-12-17T14:29:35.060Z,1.10
2017-12-17T14:32:03.206Z,1.10
2017-12-17T14:34:31.987Z,1.10
2017-12-17T14:37:00.082Z,1.10
2017-12-17T14:39:28.179Z,1.10
2017-12-17T14:41:57.063Z,1.10
2017-12-17T14:44:25.131Z,1.00
2017-12-17T14:46:54.029Z,1.00
2017-12-17T14:49:22.101Z,1.00
2017-12-17T14:51:50.952Z,1.00
2017-12-17T14:54:19.091Z,0.90
2017-12-17T14:56:47.159Z,0.90
2017-12-17T14:59:15.295Z,0.90
2017-12-17T15:01:43.377Z,0.90
2017-12-17T15:04:11.493Z,0.90
2017-12-17T15:06:39.579Z,0.90
2017-12-17T15:09:07.794Z,0.80
2017-12-17T15:11:35.877Z,0.90
2017-12-17T15:14:04.015Z,0.90
2017-12-17T15:16:32.164Z,0.80
2017-12-17T15:19:00.391Z,0.80
2017-12-17T15:21:28.518Z,0.80
2017-12-17T15:23:56.587Z,0.80
2017-12-17T15:26:24.675Z,0.80
2017-12-17T15:28:53.543Z,0.80
2017-12-17T15:31:21.624Z,0.80
2017-12-17T15:33:50.509Z,0.80
2017-12-17T15:36:18.630Z,0.80
2017-12-17T15:38:46.775Z,0.80
2017-12-17T15:41:15.655Z,0.70
2017-12-17T15:43:44.545Z,0.80
2017-12-17T15:46:13.474Z,0.70
2017-12-17T15:48:41.551Z,0.70
2017-12-17T15:51:09.641Z,0.70
2017-12-17T15:53:37.775Z,0.70
2017-12-17T15:56:05.994Z,0.70
2017-12-17T15:58:34.148Z,0.70
2017-12-17T16:01:02.236Z,0.70
2017-12-17T16:03:30.332Z,0.70
2017-12-17T16:05:59.171Z,0.70
2017-12-17T16:08:27.306Z,0.70
2017-12-17T16:10:55.428Z,0.70
2017-12-17T16:13:23.557Z,0.70
2017-12-17T16:15:51.630Z,0.70
2017-12-17T16:18:19.828Z,0.70
2017-12-17T16:20:47.943Z,0.70
2017-12-17T16:23:16.229Z,0.70
2017-12-17T16:25:45.116Z,0.70
2017-12-17T16:28:14.006Z,0.70
2017-12-17T16:30:42.886Z,0.60
2017-12-17T16:33:11.017Z,0.70
2017-12-17T16:35:39.131Z,0.70
2017-12-17T16:38:07.979Z,0.60
2017-12-17T16:40:36.065Z,0.60
2017-12-17T16:43:04.182Z,0.60
2017-12-17T16:45:32.308Z,0.60
2017-12-17T16:48:00.428Z,0.60
2017-12-17T16:50:28.561Z,0.60
2017-12-17T16:52:56.670Z,0.60
2017-12-17T16:55:24.742Z,0.60
2017-12-17T16:57:52.823Z,0.60
2017-12-17T17:00:20.912Z,0.60
2017-12-17T17:02:49.038Z,0.60
2017-12-17T17:05:17.927Z,0.60
2017-12-17T17:07:46.812Z,0.60
2017-12-17T17:10:15.687Z,0.60
2017-12-17T17:12:44.543Z,0.60
2017-12-17T17:15:12.662Z,0.50
2017-12-17T17:17:41.550Z,0.50
2017-12-17T17:20:10.438Z,0.60
2017-12-17T17:22:39.349Z,0.50
2017-12-17T17:25:07.491Z,0.50
2017-12-17T17:27:35.591Z,0.50
2017-12-17T17:30:04.080Z,0.50
2017-12-17T17:32:32.203Z,0.50
2017-12-17T17:35:00.330Z,0.50
2017-12-17T17:37:28.459Z,0.50
2017-12-17T17:39:57.346Z,0.50
2017-12-17T17:42:25.479Z,0.50
2017-12-17T17:44:53.596Z,0.50
2017-12-17T17:47:22.487Z,0.50
2017-12-17T17:49:51.636Z,0.50
2017-12-17T17:52:19.694Z,0.50
2017-12-17T17:54:47.821Z,0.50
2017-12-17T17:57:16.705Z,0.50
2017-12-17T17:59:45.586Z,0.50
2017-12-17T18:02:13.739Z,0.50
2017-12-17T18:04:41.840Z,0.50
2017-12-17T18:07:10.749Z,0.50
2017-12-17T18:09:38.810Z,0.50
2017-12-17T18:12:06.959Z,0.50
2017-12-17T18:14:35.084Z,0.50
2017-12-17T18:17:03.207Z,0.50
2017-12-17T18:19:31.324Z,0.50
2017-12-17T18:21:59.452Z,0.50
2017-12-17T18:24:27.561Z,0.50
2017-12-17T18:26:55.666Z,0.50
2017-12-17T18:29:23.798Z,0.50
2017-12-17T18:31:51.915Z,0.50
2017-12-17T18:34:20.050Z,0.50
2017-12-17T18:36:48.154Z,0.50
2017-12-17T18:39:16.374Z,0.50
2017-12-17T18:41:44.498Z,0.50
2017-12-17T18:44:12.634Z,0.40
2017-12-17T18:46:40.735Z,0.50
2017-12-17T18:49:08.866Z,0.50
2017-12-17T18:51:36.981Z,0.50
2017-12-17T18:54:05.098Z,0.50
2017-12-17T18:56:33.216Z,0.50
2017-12-17T18:59:01.352Z,0.50
2017-12-17T19:01:29.421Z,0.50
2017-12-17T19:03:57.521Z,0.50
2017-12-17T19:06:25.665Z,0.50
2017-12-17T19:08:53.782Z,0.50
2017-12-17T19:11:21.931Z,0.50
2017-12-17T19:13:50.065Z,0.50
2017-12-17T19:16:18.177Z,0.50
2017-12-17T19:18:46.397Z,0.50
2017-12-17T19:21:14.465Z,0.50
2017-12-17T19:23:43.359Z,0.50
2017-12-17T19:26:12.267Z,0.50
2017-12-17T19:28:40.395Z,0.50
2017-12-17T19:31:08.514Z,0.50
2017-12-17T19:33:36.669Z,0.50
2017-12-17T19:36:05.572Z,0.60
2017-12-17T19:38:33.694Z,0.60
2017-12-17T19:41:01.826Z,0.50
2017-12-17T19:43:29.963Z,0.60
2017-12-17T19:45:58.863Z,0.50
2017-12-17T19:48:27.036Z,0.50
2017-12-17T19:50:55.107Z,0.50
2017-12-17T19:53:23.483Z,0.50
2017-12-17T19:55:52.503Z,0.50
2017-12-17T19:58:20.643Z,0.50
2017-12-17T20:00:49.611Z,0.50
2017-12-17T20:03:17.927Z,0.50
2017-12-17T20:05:46.236Z,0.50
2017-12-17T20:08:14.400Z,0.50
2017-12-17T20:10:43.458Z,0.50
2017-12-17T20:13:11.616Z,0.50
2017-12-17T20:15:39.939Z,0.50
2017-12-17T20:18:08.358Z,0.50
2017-12-17T20:20:36.508Z,0.40
2017-12-17T20:23:05.482Z,0.50
2017-12-17T20:25:33.657Z,0.50
2017-12-17T20:28:01.850Z,0.40
2017-12-17T20:30:30.739Z,0.50
2017-12-17T20:32:58.875Z,0.50
2017-12-17T20:35:28.400Z,0.50
2017-12-17T20:37:56.681Z,0.40
2017-12-17T20:40:24.841Z,0.50
2017-12-17T20:42:53.111Z,0.50
2017-12-17T20:45:21.263Z,0.50
2017-12-17T20:47:50.247Z,0.40
2017-12-17T20:50:18.429Z,0.40
2017-12-17T20:52:46.570Z,0.40
2017-12-17T20:55:16.483Z,0.40
2017-12-17T20:57:44.667Z,0.40
2017-12-17T21:00:12.886Z,0.50
2017-12-17T21:02:41.016Z,0.40
2017-12-17T21:05:09.130Z,0.40
2017-12-17T21:07:37.331Z,0.40
2017-12-17T21:10:06.296Z,0.40
2017-12-17T21:12:34.572Z,0.40
2017-12-17T21:15:02.762Z,0.50
2017-12-17T21:17:31.762Z,0.40
2017-12-17T21:20:00.103Z,0.40
2017-12-17T21:22:28.308Z,0.40
2017-12-17T21:24:57.195Z,0.40
2017-12-17T21:27:26.079Z,0.40
2017-12-17T21:29:54.982Z,0.40
2017-12-17T21:32:23.896Z,0.40
2017-12-17T21:34:52.054Z,0.40
2017-12-17T21:37:20.957Z,0.40
2017-12-17T21:39:49.124Z,0.40
2017-12-17T21:42:17.243Z,0.40
2017-12-17T21:44:45.390Z,0.40
2017-12-17T21:47:13.518Z,0.40
2017-12-17T21:49:41.670Z,0.40
2017-12-17T21:52:10.582Z,0.40
2017-12-17T21:54:38.712Z,0.40
2017-12-17T21:57:06.830Z,0.40
2017-12-17T21:59:34.960Z,0.40
2017-12-17T22:02:03.081Z,0.40
2017-12-17T22:04:31.269Z,0.40
2017-12-17T22:06:59.407Z,0.40
2017-12-17T22:09:28.430Z,0.40
2017-12-17T22:11:56.547Z,0.40
2017-12-17T22:14:24.753Z,0.40
2017-12-17T22:16:52.887Z,0.40
2017-12-17T22:19:21.015Z,0.40
2017-12-17T22:21:49.173Z,0.40
2017-12-17T22:24:17.302Z,0.30
2017-12-17T22:26:45.510Z,0.40
2017-12-17T22:29:13.680Z,0.40
2017-12-17T22:31:41.797Z,0.40
2017-12-17T22:34:09.931Z,0.40
2017-12-17T22:36:38.067Z,0.40
2017-12-17T22:39:07.697Z,0.40
2017-12-17T22:41:35.822Z,0.40
2017-12-17T22:44:03.945Z,0.40
2017-12-17T22:46:32.066Z,0.40
2017-12-17T22:49:00.191Z,0.40
2017-12-17T22:51:28.317Z,0.40
2017-12-17T22:53:56.449Z,0.40
2017-12-17T22:56:24.569Z,0.40
2017-12-17T22:58:52.684Z,0.40
2017-12-17T23:01:20.803Z,0.40
2017-12-17T23:03:48.909Z,0.30
2017-12-17T23:06:17.031Z,0.30
2017-12-17T23:08:45.147Z,0.40
2017-12-17T23:11:13.347Z,0.30
2017-12-17T23:13:41.458Z,0.30
2017-12-17T23:16:09.531Z,0.30
2017-12-17T23:18:38.421Z,0.30
2017-12-17T23:21:06.504Z,0.30
2017-12-17T23:23:35.389Z,0.30
2017-12-17T23:26:03.526Z,0.30
2017-12-17T23:28:31.596Z,0.30
2017-12-17T23:30:59.714Z,0.30
2017-12-17T23:33:28.559Z,0.30
2017-12-17T23:35:56.639Z,0.30
2017-12-17T23:38:24.737Z,0.30
2017-12-17T23:40:52.820Z,0.20
2017-12-17T23:43:20.905Z,0.30
2017-12-17T23:45:48.996Z,0.20
2017-12-17T23:48:17.088Z,0.30
2017-12-17T23:50:45.171Z,0.20
2017-12-17T23:53:14.019Z,0.20
2017-12-17T23:55:42.139Z,0.20
2017-12-17T23:58:10.999Z,0.20
